createdAt,value
2022-08-26T00:02:26.307Z,73.46
2022-08-26T00:04:57.211Z,73.23
2022-08-26T00:07:27.459Z,72.99
2022-08-26T00:10:00.687Z,72.98
2022-08-26T00:12:37.498Z,73.11
2022-08-26T00:15:10.963Z,72.78
2022-08-26T00:17:40.920Z,72.93
2022-08-26T00:20:15.106Z,73.27
2022-08-26T00:22:45.707Z,72.55
2022-08-26T00:25:17.728Z,71.46
2022-08-26T00:27:48.423Z,70.30
2022-08-26T00:30:22.940Z,70.60
2022-08-26T00:32:54.823Z,70.62
2022-08-26T00:35:26.104Z,70.69
2022-08-26T00:37:58.956Z,71.58
2022-08-26T00:40:33.087Z,71.60
2022-08-26T00:43:06.971Z,73.09
2022-08-26T00:45:43.350Z,72.82
2022-08-26T00:48:16.406Z,73.33
2022-08-26T00:50:57.552Z,73.96
2022-08-26T00:53:31.600Z,73.72
2022-08-26T00:56:08.820Z,74.02
2022-08-26T00:58:45.406Z,72.78
2022-08-26T01:01:16.740Z,73.00
2022-08-26T01:03:47.897Z,72.21
2022-08-26T01:06:18.471Z,72.14
2022-08-26T01:08:48.416Z,72.37
2022-08-26T01:11:20.890Z,72.86
2022-08-26T01:13:54.693Z,72.43
2022-08-26T01:16:26.048Z,72.22
2022-08-26T01:19:02.150Z,72.17
2022-08-26T01:21:40.653Z,71.77
2022-08-26T01:24:13.949Z,71.71
2022-08-26T01:26:45.419Z,72.11
2022-08-26T01:29:19.014Z,72.11
2022-08-26T01:31:55.464Z,72.18
2022-08-26T01:34:28.943Z,72.86
2022-08-26T01:37:04.212Z,72.40
2022-08-26T01:39:38.012Z,72.09
2022-08-26T01:42:14.168Z,71.95
2022-08-26T01:44:47.360Z,71.60
2022-08-26T01:47:19.712Z,71.35
2022-08-26T01:49:54.257Z,72.03
2022-08-26T01:52:27.628Z,72.03
2022-08-26T01:55:00.937Z,72.09
2022-08-26T01:57:31.929Z,71.79
2022-08-26T02:00:08.248Z,72.27
2022-08-26T02:02:38.444Z,73.04
2022-08-26T02:05:12.920Z,71.98
2022-08-26T02:07:44.345Z,72.11
2022-08-26T02:10:17.016Z,71.62
2022-08-26T02:12:51.232Z,71.87
2022-08-26T02:15:21.876Z,71.89
2022-08-26T02:17:53.292Z,71.41
2022-08-26T02:20:26.435Z,71.36
2022-08-26T02:22:57.646Z,71.44
2022-08-26T02:25:33.552Z,71.29
2022-08-26T02:28:03.702Z,70.93
2022-08-26T02:30:35.220Z,71.10
2022-08-26T02:33:05.959Z,70.91
2022-08-26T02:35:37.258Z,70.64
2022-08-26T02:38:10.271Z,70.49
2022-08-26T02:40:43.933Z,69.98
2022-08-26T02:43:13.960Z,70.08
2022-08-26T02:45:44.095Z,70.34
2022-08-26T02:48:17.362Z,70.33
2022-08-26T02:50:49.446Z,70.11
2022-08-26T02:53:25.020Z,68.56
2022-08-26T02:55:57.108Z,69.07
2022-08-26T02:58:29.736Z,69.71
2022-08-26T03:01:00.241Z,69.95
2022-08-26T03:03:32.056Z,69.75
2022-08-26T03:06:02.908Z,69.95
2022-08-26T03:08:32.832Z,70.00
2022-08-26T03:11:04.346Z,70.67
2022-08-26T03:13:36.287Z,70.17
2022-08-26T03:16:07.561Z,70.94
2022-08-26T03:18:37.926Z,70.41
2022-08-26T03:21:10.855Z,70.34
2022-08-26T03:23:41.783Z,70.68
2022-08-26T03:26:16.060Z,70.57
2022-08-26T03:29:00.007Z,70.89
2022-08-26T03:31:31.219Z,70.61
2022-08-26T03:34:01.651Z,70.86
2022-08-26T03:36:32.422Z,71.39
2022-08-26T03:39:05.510Z,71.28
2022-08-26T03:41:37.483Z,70.90
2022-08-26T03:44:09.152Z,71.27
2022-08-26T03:46:40.802Z,71.42
2022-08-26T03:49:10.864Z,71.51
2022-08-26T03:51:42.091Z,71.30
2022-08-26T03:54:12.299Z,71.31
2022-08-26T03:56:43.607Z,70.92
2022-08-26T03:59:16.568Z,71.23
2022-08-26T04:01:46.571Z,70.97
2022-08-26T04:04:18.283Z,70.70
2022-08-26T04:06:58.254Z,70.87
2022-08-26T04:09:28.862Z,70.80
2022-08-26T04:12:00.775Z,70.67
2022-08-26T04:14:32.291Z,70.98
2022-08-26T04:17:02.865Z,71.31
2022-08-26T04:19:33.820Z,70.92
2022-08-26T04:22:03.817Z,70.70
2022-08-26T04:24:34.762Z,70.40
2022-08-26T04:27:06.605Z,70.38
2022-08-26T04:29:39.137Z,70.85
2022-08-26T04:32:09.636Z,70.85
2022-08-26T04:34:40.185Z,71.34
2022-08-26T04:37:13.239Z,70.28
2022-08-26T04:39:44.052Z,69.45
2022-08-26T04:42:17.956Z,69.61
2022-08-26T04:44:53.268Z,69.67
2022-08-26T04:47:23.412Z,69.18
2022-08-26T04:49:56.256Z,69.24
2022-08-26T04:52:27.715Z,69.50
2022-08-26T04:54:58.156Z,69.50
2022-08-26T04:57:29.583Z,69.69
2022-08-26T05:00:00.702Z,69.46
2022-08-26T05:02:31.592Z,69.35
2022-08-26T05:05:03.015Z,69.00
2022-08-26T05:07:34.929Z,69.25
2022-08-26T05:10:08.776Z,67.87
2022-08-26T05:12:41.101Z,67.08
2022-08-26T05:15:14.734Z,65.17
2022-08-26T05:17:45.052Z,64.74
2022-08-26T05:20:15.280Z,63.34
2022-08-26T05:22:45.262Z,62.39
2022-08-26T05:25:15.583Z,59.74
2022-08-26T05:27:47.496Z,60.17
2022-08-26T05:30:17.929Z,60.97
2022-08-26T05:32:51.524Z,59.58
2022-08-26T05:35:24.052Z,57.76
2022-08-26T05:37:54.007Z,58.30
2022-08-26T05:40:24.095Z,58.47
2022-08-26T05:42:57.401Z,59.01
2022-08-26T05:45:29.192Z,58.53
2022-08-26T05:47:59.353Z,58.97
2022-08-26T05:50:29.349Z,57.10
2022-08-26T05:52:59.380Z,56.78
2022-08-26T05:55:29.991Z,59.28
2022-08-26T05:58:02.798Z,58.15
2022-08-26T06:00:33.088Z,58.63
2022-08-26T06:03:03.079Z,59.48
2022-08-26T06:05:37.838Z,59.33
2022-08-26T06:08:14.081Z,57.93
2022-08-26T06:10:48.415Z,60.52
2022-08-26T06:13:21.511Z,60.11
2022-08-26T06:15:52.725Z,60.32
2022-08-26T06:18:27.393Z,61.84
2022-08-26T06:21:00.299Z,59.57
2022-08-26T06:23:48.155Z,58.71
2022-08-26T06:26:18.472Z,59.51
2022-08-26T06:28:49.959Z,59.39
2022-08-26T06:31:20.868Z,60.01
2022-08-26T06:33:51.328Z,60.29
2022-08-26T06:36:25.413Z,60.92
2022-08-26T06:38:59.992Z,60.55
2022-08-26T06:41:31.827Z,59.14
2022-08-26T06:44:05.891Z,59.36
2022-08-26T06:46:37.544Z,59.82
2022-08-26T06:49:08.235Z,57.99
2022-08-26T06:51:40.860Z,58.92
2022-08-26T06:54:11.513Z,58.26
2022-08-26T06:56:44.118Z,58.19
2022-08-26T06:59:16.137Z,59.05
2022-08-26T07:01:46.261Z,58.43
2022-08-26T07:04:20.267Z,58.71
2022-08-26T07:06:53.933Z,57.98
2022-08-26T07:09:27.080Z,56.29
2022-08-26T07:11:58.505Z,56.18
2022-08-26T07:14:31.799Z,53.30
2022-08-26T07:17:01.958Z,54.34
2022-08-26T07:19:32.294Z,53.92
2022-08-26T07:22:06.258Z,53.78
2022-08-26T07:24:41.175Z,54.27
2022-08-26T07:27:14.520Z,53.17
2022-08-26T07:29:46.084Z,53.89
2022-08-26T07:32:17.685Z,53.81
2022-08-26T07:34:47.979Z,53.89
2022-08-26T07:37:17.973Z,52.01
2022-08-26T07:39:49.436Z,49.90
2022-08-26T07:42:20.829Z,49.86
2022-08-26T07:44:52.421Z,49.61
2022-08-26T07:47:24.735Z,49.76
2022-08-26T07:49:57.503Z,49.19
2022-08-26T07:52:31.017Z,50.77
2022-08-26T07:55:04.423Z,49.34
2022-08-26T07:57:35.216Z,48.80
2022-08-26T08:00:11.564Z,49.47
2022-08-26T08:02:41.581Z,50.78
2022-08-26T08:05:13.965Z,50.10
2022-08-26T08:07:45.647Z,49.76
2022-08-26T08:10:20.968Z,53.84
2022-08-26T08:12:52.681Z,52.25
2022-08-26T08:15:28.781Z,50.34
2022-08-26T08:18:08.136Z,52.75
2022-08-26T08:21:04.750Z,54.75
2022-08-26T08:23:36.587Z,54.96
2022-08-26T08:26:09.156Z,54.35
2022-08-26T08:28:39.823Z,56.16
2022-08-26T08:31:38.586Z,56.55
2022-08-26T08:34:10.392Z,56.23
2022-08-26T08:36:40.418Z,57.33
2022-08-26T08:39:12.290Z,54.79
2022-08-26T08:41:51.740Z,55.40
2022-08-26T08:44:30.831Z,55.27
2022-08-26T08:47:07.231Z,55.35
2022-08-26T08:49:37.326Z,56.04
2022-08-26T08:52:18.436Z,57.17
2022-08-26T08:54:49.851Z,56.73
2022-08-26T08:57:28.977Z,58.03
2022-08-26T09:00:06.008Z,61.29
2022-08-26T09:02:44.236Z,62.23
2022-08-26T09:05:20.888Z,63.56
2022-08-26T09:07:58.496Z,64.03
2022-08-26T09:10:36.545Z,64.61
2022-08-26T09:13:09.383Z,64.04
2022-08-26T09:15:59.324Z,67.73
2022-08-26T09:18:59.580Z,69.48
2022-08-26T09:21:29.928Z,70.54
2022-08-26T09:24:00.527Z,70.28
2022-08-26T09:26:43.085Z,72.89
2022-08-26T09:29:22.790Z,71.95
2022-08-26T09:31:53.618Z,74.23
2022-08-26T09:34:27.351Z,75.52
2022-08-26T09:37:00.293Z,76.33
2022-08-26T09:39:37.839Z,75.43
2022-08-26T09:42:11.129Z,78.22
2022-08-26T09:44:54.660Z,77.85
2022-08-26T09:47:31.665Z,78.95
2022-08-26T09:50:12.557Z,77.21
2022-08-26T09:52:43.002Z,77.70
2022-08-26T09:55:21.330Z,76.84
2022-08-26T09:57:53.124Z,78.58
2022-08-26T10:00:30.518Z,80.02
2022-08-26T10:03:02.720Z,78.97
2022-08-26T10:05:40.456Z,78.70
2022-08-26T10:08:27.135Z,79.26
2022-08-26T10:10:59.031Z,79.88
2022-08-26T10:13:34.479Z,78.72
2022-08-26T10:16:14.640Z,76.99
2022-08-26T10:18:48.767Z,72.15
2022-08-26T10:21:26.690Z,69.70
2022-08-26T10:24:00.648Z,69.50
2022-08-26T10:26:40.413Z,71.29
2022-08-26T10:29:16.848Z,69.35
2022-08-26T10:31:52.655Z,70.06
2022-08-26T10:34:23.258Z,65.12
2022-08-26T10:37:15.041Z,62.53
2022-08-26T10:39:57.134Z,63.57
2022-08-26T10:42:35.340Z,63.00
2022-08-26T10:45:12.003Z,60.27
2022-08-26T10:47:51.360Z,60.63
2022-08-26T10:50:23.458Z,56.82
2022-08-26T10:53:03.960Z,58.02
2022-08-26T10:55:39.728Z,59.85
2022-08-26T10:58:26.428Z,56.09
2022-08-26T11:01:22.696Z,56.71
2022-08-26T11:04:00.442Z,59.08
2022-08-26T11:06:31.422Z,56.67
2022-08-26T11:09:06.004Z,55.79
2022-08-26T11:11:58.558Z,55.38
2022-08-26T11:14:44.674Z,54.25
2022-08-26T11:17:55.748Z,51.05
2022-08-26T11:20:41.826Z,53.02
2022-08-26T11:23:50.241Z,54.84
2022-08-26T11:26:55.228Z,54.08
2022-08-26T11:29:57.072Z,52.40
2022-08-26T11:32:46.727Z,50.52
2022-08-26T11:35:48.354Z,51.22
2022-08-26T11:38:28.873Z,48.11
2022-08-26T11:41:09.375Z,47.28
2022-08-26T11:43:42.651Z,50.61
2022-08-26T11:46:14.207Z,51.03
2022-08-26T11:48:45.196Z,46.25
2022-08-26T11:51:25.187Z,45.24
2022-08-26T11:54:10.866Z,45.22
2022-08-26T11:56:43.169Z,46.84
2022-08-26T11:59:19.900Z,46.17
2022-08-26T12:01:53.260Z,43.95
2022-08-26T12:04:29.957Z,47.17
2022-08-26T12:07:02.503Z,45.12
2022-08-26T12:09:36.432Z,45.41
2022-08-26T12:12:16.234Z,45.43
2022-08-26T12:14:48.189Z,46.22
2022-08-26T12:17:29.280Z,46.08
2022-08-26T12:20:00.273Z,45.60
2022-08-26T12:22:36.115Z,46.45
2022-08-26T12:25:10.064Z,44.84
2022-08-26T12:27:42.679Z,44.70
2022-08-26T12:30:19.177Z,45.14
2022-08-26T12:32:57.848Z,44.59
2022-08-26T12:35:28.969Z,45.60
2022-08-26T12:37:59.811Z,43.65
2022-08-26T12:40:35.546Z,45.88
2022-08-26T12:43:07.077Z,44.57
2022-08-26T12:45:41.601Z,44.17
2022-08-26T12:48:14.677Z,42.56
2022-08-26T12:50:48.564Z,41.37
2022-08-26T12:53:22.052Z,41.99
2022-08-26T12:55:54.640Z,40.09
2022-08-26T12:58:31.793Z,42.98
2022-08-26T13:01:22.679Z,41.64
2022-08-26T13:03:53.289Z,41.67
2022-08-26T13:06:30.055Z,40.74
2022-08-26T13:09:04.427Z,41.36
2022-08-26T13:11:56.021Z,43.00
2022-08-26T13:14:26.463Z,43.50
2022-08-26T13:16:58.399Z,45.74
2022-08-26T13:19:29.571Z,42.09
2022-08-26T13:22:01.227Z,41.21
2022-08-26T13:24:35.137Z,45.07
2022-08-26T13:27:06.272Z,43.91
2022-08-26T13:29:37.183Z,42.46
2022-08-26T13:32:09.923Z,44.93
2022-08-26T13:34:40.575Z,45.07
2022-08-26T13:37:10.623Z,45.01
2022-08-26T13:39:41.940Z,43.99
2022-08-26T13:42:11.864Z,41.46
2022-08-26T13:44:43.748Z,43.59
2022-08-26T13:47:15.243Z,44.02
2022-08-26T13:49:46.240Z,44.77
2022-08-26T13:52:16.775Z,46.60
2022-08-26T13:54:46.689Z,44.08
2022-08-26T13:57:17.019Z,44.34
2022-08-26T13:59:47.402Z,44.14
2022-08-26T14:02:18.852Z,42.86
2022-08-26T14:04:48.984Z,45.39
2022-08-26T14:07:19.367Z,45.29
2022-08-26T14:09:49.469Z,44.50
2022-08-26T14:12:20.383Z,45.79
2022-08-26T14:14:50.640Z,46.53
2022-08-26T14:17:24.454Z,44.62
2022-08-26T14:19:54.925Z,43.09
2022-08-26T14:22:25.054Z,42.95
2022-08-26T14:24:56.521Z,43.28
2022-08-26T14:27:27.908Z,44.12
2022-08-26T14:29:57.738Z,43.74
2022-08-26T14:32:31.234Z,44.30
2022-08-26T14:35:01.354Z,43.69
2022-08-26T14:37:31.594Z,43.02
2022-08-26T14:40:02.021Z,44.23
2022-08-26T14:42:32.452Z,42.12
2022-08-26T14:45:05.183Z,43.07
2022-08-26T14:47:37.845Z,44.87
2022-08-26T14:50:08.563Z,45.32
2022-08-26T14:52:52.531Z,42.67
2022-08-26T14:55:22.413Z,43.11
2022-08-26T14:57:52.268Z,43.63
2022-08-26T15:00:23.349Z,43.37
2022-08-26T15:02:54.726Z,43.47
2022-08-26T15:05:24.670Z,43.25
2022-08-26T15:07:54.725Z,43.15
2022-08-26T15:10:24.703Z,44.78
2022-08-26T15:12:55.350Z,42.75
2022-08-26T15:15:25.612Z,42.55
2022-08-26T15:17:57.112Z,43.20
2022-08-26T15:20:27.118Z,43.54
2022-08-26T15:22:58.223Z,44.42
2022-08-26T15:25:32.069Z,45.73
2022-08-26T15:28:02.087Z,45.30
2022-08-26T15:30:33.471Z,45.21
2022-08-26T15:33:04.780Z,45.36
2022-08-26T15:35:38.423Z,45.87
2022-08-26T15:38:10.802Z,46.54
2022-08-26T15:40:40.901Z,47.46
2022-08-26T15:43:27.682Z,45.89
2022-08-26T15:45:58.952Z,47.59
2022-08-26T15:48:30.284Z,46.93
2022-08-26T15:51:02.483Z,47.34
2022-08-26T15:53:34.236Z,44.41
2022-08-26T15:56:05.339Z,46.01
2022-08-26T15:58:35.235Z,46.14
2022-08-26T16:01:06.490Z,48.02
2022-08-26T16:03:37.914Z,46.88
2022-08-26T16:06:08.778Z,47.78
2022-08-26T16:08:39.669Z,47.17
2022-08-26T16:11:10.355Z,46.11
2022-08-26T16:13:41.023Z,47.42
2022-08-26T16:16:12.051Z,48.54
2022-08-26T16:18:44.505Z,48.50
2022-08-26T16:21:17.421Z,50.24
2022-08-26T16:23:49.084Z,51.27
2022-08-26T16:26:21.607Z,49.23
2022-08-26T16:28:52.347Z,49.26
2022-08-26T16:31:22.630Z,48.70
2022-08-26T16:33:54.104Z,48.78
2022-08-26T16:36:24.310Z,48.32
2022-08-26T16:38:56.448Z,51.12
2022-08-26T16:41:28.774Z,49.74
2022-08-26T16:43:59.490Z,52.14
2022-08-26T16:46:30.655Z,49.26
2022-08-26T16:49:04.764Z,51.96
2022-08-26T16:51:38.287Z,52.83
2022-08-26T16:54:09.448Z,55.09
2022-08-26T16:56:40.069Z,50.92
2022-08-26T16:59:11.738Z,53.11
2022-08-26T17:01:41.776Z,52.32
2022-08-26T17:04:13.180Z,51.56
2022-08-26T17:06:43.181Z,51.89
2022-08-26T17:09:13.531Z,54.88
2022-08-26T17:11:44.949Z,53.11
2022-08-26T17:14:15.384Z,52.77
2022-08-26T17:16:46.301Z,53.90
2022-08-26T17:19:19.196Z,51.66
2022-08-26T17:21:49.529Z,53.08
2022-08-26T17:24:19.428Z,54.73
2022-08-26T17:26:53.430Z,52.03
2022-08-26T17:29:23.669Z,53.27
2022-08-26T17:31:53.608Z,52.60
2022-08-26T17:34:25.775Z,53.76
2022-08-26T17:36:55.836Z,52.38
2022-08-26T17:39:25.719Z,51.60
2022-08-26T17:41:55.578Z,53.57
2022-08-26T17:44:25.480Z,52.29
2022-08-26T17:46:55.445Z,51.45
2022-08-26T17:49:27.699Z,52.33
2022-08-26T17:51:59.544Z,53.30
2022-08-26T17:54:30.494Z,54.72
2022-08-26T17:57:02.008Z,56.17
2022-08-26T17:59:32.048Z,53.72
2022-08-26T18:02:02.311Z,54.96
2022-08-26T18:04:34.072Z,54.09
2022-08-26T18:07:04.072Z,54.58
2022-08-26T18:09:35.037Z,55.17
2022-08-26T18:12:05.538Z,54.96
2022-08-26T18:14:36.767Z,55.07
2022-08-26T18:17:07.877Z,55.62
2022-08-26T18:19:39.172Z,54.98
2022-08-26T18:22:09.649Z,55.17
2022-08-26T18:24:57.369Z,55.07
2022-08-26T18:27:29.290Z,54.80
2022-08-26T18:29:59.413Z,55.03
2022-08-26T18:32:29.422Z,55.07
2022-08-26T18:35:00.751Z,54.95
2022-08-26T18:37:31.631Z,55.00
2022-08-26T18:40:01.960Z,54.77
2022-08-26T18:42:31.919Z,54.57
2022-08-26T18:45:02.214Z,55.15
2022-08-26T18:47:32.481Z,54.66
2022-08-26T18:50:04.557Z,54.70
2022-08-26T18:52:34.967Z,54.77
2022-08-26T18:55:05.899Z,55.07
2022-08-26T18:57:35.814Z,55.12
2022-08-26T19:00:08.215Z,55.01
2022-08-26T19:02:38.725Z,55.47
2022-08-26T19:05:11.642Z,55.30
2022-08-26T19:07:41.697Z,55.37
2022-08-26T19:10:15.701Z,55.60
2022-08-26T19:12:46.006Z,56.08
2022-08-26T19:15:22.994Z,55.76
2022-08-26T19:17:53.113Z,55.58
2022-08-26T19:20:25.807Z,55.32
2022-08-26T19:22:59.685Z,55.50
2022-08-26T19:25:32.509Z,55.27
2022-08-26T19:28:02.629Z,55.42
2022-08-26T19:30:33.394Z,55.64
2022-08-26T19:33:05.277Z,55.64
2022-08-26T19:35:37.651Z,55.84
2022-08-26T19:38:07.532Z,56.27
2022-08-26T19:40:38.704Z,56.53
2022-08-26T19:43:09.501Z,56.67
2022-08-26T19:45:42.061Z,57.20
2022-08-26T19:48:12.095Z,57.68
2022-08-26T19:50:43.681Z,57.80
2022-08-26T19:53:13.824Z,57.88
2022-08-26T19:55:43.717Z,58.36
2022-08-26T19:58:13.522Z,58.16
2022-08-26T20:00:43.568Z,58.55
2022-08-26T20:03:16.026Z,58.27
2022-08-26T20:05:47.728Z,58.77
2022-08-26T20:08:22.585Z,58.48
2022-08-26T20:10:54.062Z,58.64
2022-08-26T20:13:24.380Z,58.91
2022-08-26T20:15:54.858Z,59.34
2022-08-26T20:18:42.235Z,59.42
2022-08-26T20:21:29.451Z,59.42
2022-08-26T20:24:03.568Z,59.41
2022-08-26T20:26:36.593Z,59.65
2022-08-26T20:29:08.331Z,59.91
2022-08-26T20:31:39.065Z,59.91
2022-08-26T20:34:09.080Z,59.94
2022-08-26T20:36:41.592Z,60.01
2022-08-26T20:39:12.156Z,60.34
2022-08-26T20:41:42.474Z,60.11
2022-08-26T20:44:13.291Z,60.19
2022-08-26T20:46:44.629Z,60.54
2022-08-26T20:49:15.434Z,60.88
2022-08-26T20:51:48.336Z,60.39
2022-08-26T20:54:19.444Z,60.14
2022-08-26T20:56:50.091Z,59.91
2022-08-26T20:59:21.446Z,59.57
2022-08-26T21:01:51.521Z,59.18
2022-08-26T21:04:23.652Z,59.41
2022-08-26T21:06:55.496Z,59.45
2022-08-26T21:09:27.337Z,59.32
2022-08-26T21:11:59.189Z,59.35
2022-08-26T21:14:29.377Z,59.76
2022-08-26T21:17:00.172Z,59.81
2022-08-26T21:19:30.800Z,59.94
2022-08-26T21:22:03.483Z,59.75
2022-08-26T21:24:33.842Z,59.75
2022-08-26T21:27:03.673Z,59.77
2022-08-26T21:29:34.540Z,60.17
2022-08-26T21:32:05.208Z,59.91
2022-08-26T21:34:35.387Z,59.77
2022-08-26T21:37:15.161Z,59.92
2022-08-26T21:39:46.713Z,60.27
2022-08-26T21:42:16.607Z,59.88
2022-08-26T21:44:50.819Z,59.87
2022-08-26T21:47:23.159Z,60.04
2022-08-26T21:49:53.572Z,59.93
2022-08-26T21:52:24.797Z,60.03
2022-08-26T21:54:58.129Z,60.15
2022-08-26T21:57:29.021Z,60.53
2022-08-26T21:59:59.731Z,60.41
2022-08-26T22:02:29.661Z,60.91
2022-08-26T22:04:59.501Z,60.78
2022-08-26T22:07:30.853Z,60.96
2022-08-26T22:10:02.227Z,61.20
2022-08-26T22:12:32.948Z,61.49
2022-08-26T22:15:03.764Z,61.44
2022-08-26T22:17:33.763Z,61.08
2022-08-26T22:20:03.948Z,61.16
2022-08-26T22:22:35.258Z,61.29
2022-08-26T22:25:05.600Z,61.70
2022-08-26T22:27:35.516Z,61.72
2022-08-26T22:30:11.733Z,62.00
2022-08-26T22:32:42.189Z,62.15
2022-08-26T22:35:28.439Z,62.66
2022-08-26T22:38:00.968Z,62.66
2022-08-26T22:40:30.853Z,62.62
2022-08-26T22:43:00.763Z,62.22
2022-08-26T22:45:32.310Z,62.51
2022-08-26T22:48:05.030Z,62.28
2022-08-26T22:50:35.423Z,62.19
2022-08-26T22:53:06.590Z,62.11
2022-08-26T22:55:37.275Z,62.68
2022-08-26T22:58:08.004Z,62.77
2022-08-26T23:00:38.510Z,62.82
2022-08-26T23:03:09.056Z,63.08
2022-08-26T23:05:40.080Z,63.01
2022-08-26T23:08:12.486Z,62.78
2022-08-26T23:10:44.352Z,62.75
2022-08-26T23:13:17.347Z,62.87
2022-08-26T23:15:47.747Z,62.75
2022-08-26T23:18:17.699Z,63.06
2022-08-26T23:20:47.745Z,63.59
2022-08-26T23:23:18.956Z,64.16
2022-08-26T23:25:48.850Z,64.03
2022-08-26T23:28:20.627Z,64.14
2022-08-26T23:30:50.668Z,63.74
2022-08-26T23:33:21.074Z,63.69
2022-08-26T23:35:50.839Z,63.55
2022-08-26T23:38:22.010Z,63.47
2022-08-26T23:40:51.869Z,63.12
2022-08-26T23:43:21.924Z,62.96
2022-08-26T23:45:51.772Z,62.89
2022-08-26T23:48:21.904Z,63.02
2022-08-26T23:51:09.247Z,63.10
2022-08-26T23:53:40.429Z,63.17
2022-08-26T23:56:15.820Z,62.73
2022-08-26T23:58:47.086Z,62.92
